Terminal Aerodrome Forecast
Issued by NWS

Home | Current Version | Previous Version | Text Only | Print | Product List | Glossary On
Versions: 1 2 3 4 5 6 7 8 9 10 11 12
000
FTPQ31 PGUM 300526
TAFGUM
TAF

TAF
PKMJ 300526Z 3006/3106 11010KT P6SM FEW016 SCT050 SCT120=

USA.gov is the U.S. government's official web portal to all federal, state and local government web resources and services.